Time;durP1;ratioP1;P1;durP2;ratioP2;P2;SDS_P1;SDS_P2;PMS_P1;PMS_P2;Temp;Humidity;BMP_temperature;BMP_pressure;BME280_temperature;BME280_humidity;BME280_pressure;Samples;Min_cycle;Max_cycle;Signal;HPM_P1;HPM_P2
2021/09/26 00:00:03;;;;;;;4.35;1.90;;;27.10;99.90;;;;;;4142330;28;20428;-66
2021/09/26 00:02:21;;;;;;;4.78;1.92;;;27.20;99.90;;;;;;4138864;28;20046;-66
2021/09/26 00:04:28;;;;;;;3.55;1.77;;;27.20;99.90;;;;;;4130933;28;20496;-66
2021/09/26 00:06:53;;;;;;;6.45;1.90;;;25.90;99.90;;;;;;4106536;28;20433;-66
2021/09/26 00:08:58;;;;;;;6.85;2.00;;;25.90;99.90;;;;;;4149414;28;20058;-65
2021/09/26 00:11:06;;;;;;;5.20;2.85;;;25.90;99.90;;;;;;4157001;28;20603;-64
2021/09/26 00:13:11;;;;;;;6.35;2.20;;;25.90;99.90;;;;;;4144559;28;20373;-64
2021/09/26 00:15:18;;;;;;;4.05;2.10;;;26.00;99.90;;;;;;4152445;28;20037;-64
2021/09/26 00:17:22;;;;;;;2.30;1.90;;;25.90;99.90;;;;;;4160532;28;20041;-64
2021/09/26 00:19:27;;;;;;;3.38;1.90;;;25.90;99.90;;;;;;4160370;28;20057;-64
2021/09/26 00:21:31;;;;;;;5.40;2.15;;;25.90;99.90;;;;;;4159209;28;20158;-65
2021/09/26 00:23:37;;;;;;;4.93;2.30;;;25.90;99.90;;;;;;4157505;28;20520;-65
2021/09/26 00:25:41;;;;;;;2.63;1.92;;;26.00;99.90;;;;;;4152390;28;20038;-65
2021/09/26 00:27:46;;;;;;;2.47;1.98;;;26.00;99.90;;;;;;4153047;28;20046;-65
2021/09/26 00:29:50;;;;;;;5.32;1.73;;;26.00;99.90;;;;;;4134878;28;20041;-65
2021/09/26 00:31:55;;;;;;;4.00;2.15;;;26.10;99.90;;;;;;4151563;28;20302;-65
2021/09/26 00:33:59;;;;;;;5.03;1.85;;;26.10;99.90;;;;;;4151757;28;20069;-64
2021/09/26 00:36:04;;;;;;;5.10;1.80;;;26.10;99.90;;;;;;4155425;28;20493;-65
2021/09/26 00:38:11;;;;;;;3.33;1.75;;;26.10;99.90;;;;;;4153620;28;20045;-64
2021/09/26 00:40:15;;;;;;;2.38;1.60;;;26.10;99.90;;;;;;4154851;28;20142;-65
2021/09/26 00:42:20;;;;;;;3.25;1.80;;;26.10;99.90;;;;;;4158119;28;20389;-64
2021/09/26 00:44:24;;;;;;;4.70;1.90;;;26.10;99.90;;;;;;4157905;28;20144;-64
2021/09/26 00:46:28;;;;;;;2.40;1.58;;;26.20;99.90;;;;;;4158924;28;20044;-65
2021/09/26 00:48:33;;;;;;;2.72;1.88;;;26.20;99.90;;;;;;4155936;28;20041;-65
2021/09/26 00:50:38;;;;;;;2.65;2.17;;;26.20;99.90;;;;;;4154835;28;20050;-65
2021/09/26 00:52:45;;;;;;;3.03;1.88;;;26.20;99.90;;;;;;4159046;28;20068;-65
2021/09/26 00:54:51;;;;;;;2.55;1.58;;;26.30;99.90;;;;;;4156875;28;20037;-66
2021/09/26 00:56:55;;;;;;;3.38;1.60;;;26.30;99.90;;;;;;4155296;28;20049;-65
2021/09/26 00:59:00;;;;;;;2.78;1.90;;;26.30;99.90;;;;;;4142270;28;20046;-65
2021/09/26 01:01:04;;;;;;;2.38;1.80;;;26.30;99.90;;;;;;4157576;28;20085;-65
2021/09/26 01:03:14;;;;;;;4.25;2.10;;;26.30;99.90;;;;;;4155918;28;20512;-65
2021/09/26 01:05:24;;;;;;;3.25;1.80;;;26.40;99.90;;;;;;4163098;28;20080;-65
2021/09/26 01:07:55;;;;;;;4.55;1.50;;;26.40;99.90;;;;;;4172883;28;20045;-64
2021/09/26 01:10:12;;;;;;;2.83;1.65;;;26.50;99.90;;;;;;4173033;28;20045;-65
2021/09/26 01:12:46;;;;;;;1.70;1.40;;;26.60;99.90;;;;;;4173432;28;20041;-65
2021/09/26 01:15:24;;;;;;;3.10;1.55;;;26.70;99.90;;;;;;4173721;28;20439;-65
2021/09/26 01:17:34;;;;;;;7.45;1.70;;;26.80;99.90;;;;;;4168226;28;20087;-66
2021/09/26 01:20:04;;;;;;;3.50;1.40;;;27.00;99.90;;;;;;4164146;28;20045;-66
2021/09/26 01:22:12;;;;;;;3.35;1.50;;;27.10;99.90;;;;;;4158005;28;20088;-65
2021/09/26 01:24:23;;;;;;;2.20;1.42;;;27.20;99.90;;;;;;4162199;28;20049;-65
2021/09/26 01:26:52;;;;;;;3.50;1.48;;;27.20;99.90;;;;;;4164053;28;20034;-65
2021/09/26 01:29:28;;;;;;;2.50;1.50;;;27.20;99.90;;;;;;4162727;28;20037;-66
2021/09/26 01:31:40;;;;;;;3.70;1.80;;;27.20;99.90;;;;;;4160795;28;20045;-67
2021/09/26 01:34:03;;;;;;;6.93;1.40;;;27.20;99.90;;;;;;4163009;28;20076;-66
2021/09/26 01:36:24;;;;;;;2.28;1.60;;;27.20;99.90;;;;;;4162716;28;20430;-67
2021/09/26 01:38:39;;;;;;;1.58;1.20;;;27.20;99.90;;;;;;4163405;28;20056;-68
2021/09/26 01:40:50;;;;;;;2.03;1.30;;;27.20;99.90;;;;;;4161945;28;20152;-68
2021/09/26 01:42:58;;;;;;;2.08;1.40;;;27.20;99.90;;;;;;4162247;28;20515;-68
2021/09/26 01:45:09;;;;;;;2.40;1.33;;;27.30;99.90;;;;;;4163166;28;20095;-68
2021/09/26 01:47:16;;;;;;;5.60;1.60;;;27.40;99.90;;;;;;4176221;28;20064;-69
2021/09/26 01:49:32;;;;;;;2.47;1.48;;;27.40;99.90;;;;;;4162902;28;20515;-71
2021/09/26 01:51:38;;;;;;;1.95;1.25;;;27.40;99.90;;;;;;4174288;28;20033;-69
2021/09/26 01:53:44;;;;;;;2.72;1.30;;;27.40;99.90;;;;;;4142680;28;20053;-67
2021/09/26 01:55:50;;;;;;;3.47;1.23;;;27.40;99.90;;;;;;4162176;28;20064;-68
2021/09/26 01:57:58;;;;;;;7.10;1.40;;;27.40;99.90;;;;;;4177852;28;20564;-67
2021/09/26 02:00:04;;;;;;;3.83;1.40;;;27.40;99.90;;;;;;4146598;28;20048;-63
2021/09/26 02:02:17;;;;;;;3.42;1.20;;;27.40;99.90;;;;;;4147738;28;20130;-66
2021/09/26 02:04:26;;;;;;;3.75;1.42;;;27.40;99.90;;;;;;4145639;28;20526;-66
2021/09/26 02:06:38;;;;;;;2.25;1.40;;;27.50;99.90;;;;;;4129149;28;20196;-66
2021/09/26 02:08:44;;;;;;;5.82;1.10;;;27.50;99.90;;;;;;4112462;28;20046;-67
2021/09/26 02:10:49;;;;;;;3.38;1.50;;;27.50;99.90;;;;;;4100198;28;20257;-66
2021/09/26 02:12:55;;;;;;;1.25;1.15;;;27.60;99.90;;;;;;4127047;28;20038;-66
2021/09/26 02:15:00;;;;;;;2.47;1.40;;;27.70;99.90;;;;;;4113670;28;20546;-66
2021/09/26 02:17:07;;;;;;;2.95;1.25;;;27.80;99.90;;;;;;4113049;28;20050;-66
2021/09/26 02:19:17;;;;;;;2.67;1.30;;;27.80;99.90;;;;;;4122325;28;20061;-66
2021/09/26 02:21:23;;;;;;;1.85;1.42;;;27.80;99.90;;;;;;4113269;28;20054;-66
2021/09/26 02:23:28;;;;;;;5.35;1.83;;;27.80;99.90;;;;;;4128948;28;20555;-67
2021/09/26 02:25:33;;;;;;;2.38;1.17;;;27.90;99.90;;;;;;4099960;28;20126;-66
2021/09/26 02:27:40;;;;;;;4.55;1.20;;;27.90;99.90;;;;;;4066107;29;20048;-66
2021/09/26 02:29:49;;;;;;;2.70;1.20;;;27.90;99.90;;;;;;4080564;29;20070;-66
2021/09/26 02:31:58;;;;;;;4.40;1.30;;;27.80;99.90;;;;;;4066504;29;20047;-65
2021/09/26 02:34:04;;;;;;;5.30;1.10;;;27.80;99.90;;;;;;4081426;29;20427;-65
2021/09/26 02:36:13;;;;;;;1.55;1.02;;;27.80;99.90;;;;;;4097119;29;20058;-67
2021/09/26 02:38:18;;;;;;;2.83;1.10;;;27.80;99.90;;;;;;4133272;28;20054;-65
2021/09/26 02:40:23;;;;;;;2.60;1.10;;;27.80;99.90;;;;;;4160533;28;20054;-64
2021/09/26 02:42:43;;;;;;;2.00;0.75;;;27.90;99.90;;;;;;4139036;28;20492;-64
2021/09/26 02:45:00;;;;;;;1.27;1.10;;;27.90;99.90;;;;;;4144751;28;20042;-65
2021/09/26 02:47:15;;;;;;;3.67;0.98;;;28.00;99.90;;;;;;4145251;28;20045;-63
2021/09/26 02:49:24;;;;;;;2.17;1.00;;;28.00;99.90;;;;;;4114627;28;20551;-64
2021/09/26 02:51:32;;;;;;;4.10;1.20;;;28.10;99.90;;;;;;4129374;28;20043;-63
2021/09/26 02:53:43;;;;;;;4.25;1.00;;;28.20;99.90;;;;;;4115765;28;20042;-64
2021/09/26 02:55:51;;;;;;;5.28;1.40;;;28.20;99.90;;;;;;4157768;28;20508;-66
2021/09/26 02:57:56;;;;;;;5.18;1.10;;;28.20;99.90;;;;;;4096561;29;20051;-64
2021/09/26 03:00:03;;;;;;;1.40;1.00;;;28.20;99.90;;;;;;4080414;29;20043;-65
2021/09/26 03:02:08;;;;;;;2.67;1.20;;;28.20;99.90;;;;;;4065014;29;20040;-65
2021/09/26 03:04:13;;;;;;;1.60;0.90;;;28.20;99.90;;;;;;4105655;28;20055;-64
2021/09/26 03:06:18;;;;;;;3.05;1.25;;;28.30;99.90;;;;;;4112597;28;20047;-65
2021/09/26 03:08:23;;;;;;;2.05;1.20;;;28.30;99.90;;;;;;4112134;28;20050;-65
2021/09/26 03:10:27;;;;;;;1.63;0.95;;;28.30;99.90;;;;;;4099882;28;20418;-64
2021/09/26 03:12:32;;;;;;;3.40;1.13;;;28.30;99.90;;;;;;4112443;28;20207;-65
2021/09/26 03:14:37;;;;;;;1.00;0.90;;;28.30;99.90;;;;;;4095585;29;20055;-65
2021/09/26 03:16:41;;;;;;;1.45;1.00;;;28.30;99.90;;;;;;4096420;28;20075;-64
2021/09/26 03:18:46;;;;;;;1.13;1.00;;;28.30;99.90;;;;;;4096139;29;20074;-66
2021/09/26 03:20:51;;;;;;;3.50;0.98;;;28.40;99.90;;;;;;4080674;29;20246;-71
2021/09/26 03:22:55;;;;;;;1.92;0.95;;;28.40;99.90;;;;;;4096450;28;20058;-65
2021/09/26 03:25:00;;;;;;;1.55;0.90;;;28.40;99.90;;;;;;4094180;29;20051;-65
2021/09/26 03:27:09;;;;;;;3.45;0.95;;;28.30;99.90;;;;;;4096265;29;20055;-65
2021/09/26 03:29:13;;;;;;;2.22;1.08;;;28.40;99.90;;;;;;4104089;28;20056;-65
2021/09/26 03:31:20;;;;;;;2.95;1.10;;;28.40;99.90;;;;;;4128541;28;20057;-65
2021/09/26 03:33:24;;;;;;;2.78;1.17;;;28.40;99.90;;;;;;4128459;28;20449;-65
2021/09/26 03:35:29;;;;;;;1.85;1.00;;;28.50;99.90;;;;;;4143928;28;20088;-65
2021/09/26 03:37:34;;;;;;;1.88;1.25;;;28.50;99.90;;;;;;4144084;28;20041;-65
2021/09/26 03:39:39;;;;;;;1.70;1.05;;;28.50;99.90;;;;;;4127681;28;20054;-65
2021/09/26 03:41:43;;;;;;;2.40;1.25;;;28.50;99.90;;;;;;4128282;28;20065;-66
2021/09/26 03:43:48;;;;;;;3.05;1.10;;;28.60;99.90;;;;;;4144234;28;20109;-65
2021/09/26 03:45:52;;;;;;;1.40;1.02;;;28.60;99.90;;;;;;4152610;28;20049;-65
2021/09/26 03:47:57;;;;;;;1.50;1.05;;;28.60;99.90;;;;;;4146559;28;20053;-64
2021/09/26 03:50:02;;;;;;;1.45;1.10;;;28.70;99.90;;;;;;4159850;28;20034;-65
2021/09/26 03:52:07;;;;;;;2.58;1.10;;;28.70;99.90;;;;;;4162935;28;20111;-65
2021/09/26 03:54:12;;;;;;;2.00;1.30;;;28.80;99.90;;;;;;4161126;28;20033;-65
2021/09/26 03:56:17;;;;;;;1.50;1.13;;;28.90;99.90;;;;;;4176795;28;20446;-64
2021/09/26 03:58:21;;;;;;;2.35;1.10;;;29.00;99.90;;;;;;4161382;28;20426;-65
2021/09/26 04:00:26;;;;;;;1.98;0.98;;;29.00;99.90;;;;;;4162426;28;20530;-66
2021/09/26 04:02:31;;;;;;;3.28;1.17;;;29.10;99.90;;;;;;4162439;28;20096;-65
2021/09/26 04:04:36;;;;;;;2.53;1.02;;;29.10;99.90;;;;;;4173120;28;20046;-65
2021/09/26 04:06:40;;;;;;;2.72;1.10;;;29.00;99.90;;;;;;4147368;28;20542;-65
2021/09/26 04:08:46;;;;;;;2.67;1.00;;;29.10;99.90;;;;;;4154348;28;20511;-65
2021/09/26 04:10:51;;;;;;;2.00;0.98;;;29.10;99.90;;;;;;4162592;28;20099;-65
2021/09/26 04:12:56;;;;;;;1.45;0.90;;;29.20;99.90;;;;;;4161023;28;20044;-65
2021/09/26 04:15:01;;;;;;;2.90;1.08;;;29.10;99.90;;;;;;4161284;28;20451;-65
2021/09/26 04:17:06;;;;;;;1.73;1.20;;;29.10;99.90;;;;;;4162314;28;20457;-65
2021/09/26 04:19:10;;;;;;;2.67;1.00;;;29.20;99.90;;;;;;4160781;28;20049;-64
2021/09/26 04:21:18;;;;;;;2.25;1.15;;;29.30;99.90;;;;;;4162387;28;20133;-64
2021/09/26 04:23:23;;;;;;;2.38;0.90;;;29.40;99.90;;;;;;4162422;28;20096;-64
2021/09/26 04:25:27;;;;;;;1.08;0.90;;;29.50;99.90;;;;;;4160775;28;20389;-64
2021/09/26 04:27:32;;;;;;;1.50;1.15;;;29.50;99.90;;;;;;4162267;28;20045;-65
2021/09/26 04:29:37;;;;;;;1.35;0.95;;;29.60;99.90;;;;;;4161996;28;20069;-65
2021/09/26 04:31:41;;;;;;;3.30;1.52;;;29.60;99.90;;;;;;4162277;28;20077;-65
2021/09/26 04:33:46;;;;;;;1.73;1.00;;;29.60;99.90;;;;;;4162238;28;20053;-65
2021/09/26 04:35:51;;;;;;;1.50;1.00;;;29.60;99.90;;;;;;4162121;28;20071;-65
2021/09/26 04:37:57;;;;;;;3.40;1.23;;;29.60;99.90;;;;;;4160623;28;20081;-65
2021/09/26 04:40:01;;;;;;;2.53;1.00;;;29.60;99.90;;;;;;4161873;28;20390;-64
2021/09/26 04:42:09;;;;;;;1.42;0.93;;;29.60;99.90;;;;;;4177382;28;20037;-65
2021/09/26 04:44:14;;;;;;;2.90;1.00;;;29.60;99.90;;;;;;4176601;28;20055;-65
2021/09/26 04:46:18;;;;;;;1.15;0.90;;;29.60;99.90;;;;;;4162157;28;20046;-64
2021/09/26 04:48:23;;;;;;;1.30;0.95;;;29.50;99.90;;;;;;4162111;28;20602;-64
2021/09/26 04:50:27;;;;;;;2.20;1.08;;;29.40;99.90;;;;;;4161907;28;20053;-65
2021/09/26 04:52:33;;;;;;;6.10;1.20;;;29.30;99.90;;;;;;4163531;28;20049;-65
2021/09/26 04:54:39;;;;;;;3.38;1.30;;;29.20;99.90;;;;;;4162152;28;20084;-64
2021/09/26 04:56:43;;;;;;;2.70;1.10;;;29.10;99.90;;;;;;4165187;28;20099;-65
2021/09/26 04:58:48;;;;;;;1.42;1.20;;;29.10;99.90;;;;;;4165036;28;20038;-65
2021/09/26 05:00:52;;;;;;;1.55;1.20;;;29.10;99.90;;;;;;4165067;28;20086;-65
2021/09/26 05:02:57;;;;;;;2.70;1.10;;;29.10;99.90;;;;;;4165331;28;20061;-65
2021/09/26 05:05:02;;;;;;;2.20;1.13;;;29.00;99.90;;;;;;4164862;28;20045;-65
2021/09/26 05:07:10;;;;;;;1.88;0.80;;;29.00;99.90;;;;;;4163773;28;20057;-65
2021/09/26 05:09:16;;;;;;;0.90;0.70;;;29.00;99.90;;;;;;4159652;28;20877;-65
2021/09/26 05:11:21;;;;;;;1.08;0.93;;;29.10;99.90;;;;;;4163548;28;20412;-64
2021/09/26 05:13:26;;;;;;;3.35;0.80;;;29.10;99.90;;;;;;4164832;28;20068;-64
2021/09/26 05:15:30;;;;;;;1.70;0.80;;;29.20;99.90;;;;;;4164895;28;20037;-64
2021/09/26 05:17:34;;;;;;;1.98;1.10;;;29.30;99.90;;;;;;4164853;28;20052;-64
2021/09/26 05:19:39;;;;;;;1.02;0.80;;;29.30;99.90;;;;;;4164742;28;20602;-65
2021/09/26 05:21:43;;;;;;;1.15;0.90;;;29.30;99.90;;;;;;4164287;28;20480;-65
2021/09/26 05:23:49;;;;;;;1.55;1.02;;;29.30;99.90;;;;;;4163337;28;20091;-64
2021/09/26 05:25:53;;;;;;;1.17;1.00;;;29.40;99.90;;;;;;4148428;28;20038;-65
2021/09/26 05:27:58;;;;;;;1.65;1.02;;;29.60;99.90;;;;;;4148366;28;20068;-66
2021/09/26 05:30:03;;;;;;;1.40;1.00;;;29.80;99.90;;;;;;4148697;28;20061;-65
2021/09/26 05:32:08;;;;;;;1.67;1.10;;;29.80;99.90;;;;;;4152284;28;20108;-64
2021/09/26 05:34:14;;;;;;;1.38;1.00;;;29.90;99.90;;;;;;4178688;28;20060;-64
2021/09/26 05:36:19;;;;;;;2.08;1.10;;;30.00;99.90;;;;;;4153445;28;20042;-65
2021/09/26 05:38:24;;;;;;;2.55;0.90;;;30.10;99.90;;;;;;4164775;28;20051;-65
2021/09/26 05:40:28;;;;;;;2.38;0.90;;;30.20;99.90;;;;;;4164524;28;20093;-64
2021/09/26 05:42:33;;;;;;;1.90;1.02;;;30.20;99.90;;;;;;4164951;28;20041;-65
2021/09/26 05:44:38;;;;;;;1.00;0.90;;;30.10;99.90;;;;;;4164591;28;20049;-64
2021/09/26 05:46:43;;;;;;;1.30;0.90;;;30.10;99.90;;;;;;4164294;28;20056;-66
2021/09/26 05:48:48;;;;;;;1.65;1.00;;;30.20;99.90;;;;;;4162253;28;20043;-66
2021/09/26 05:50:52;;;;;;;2.45;1.00;;;30.20;99.90;;;;;;4162814;28;20063;-65
2021/09/26 05:52:57;;;;;;;2.38;1.00;;;30.20;99.90;;;;;;4163224;28;20092;-66
2021/09/26 05:55:01;;;;;;;1.35;0.80;;;30.20;99.90;;;;;;4158885;28;20472;-66
2021/09/26 05:57:07;;;;;;;2.60;1.13;;;30.20;99.90;;;;;;4163129;28;20080;-66
2021/09/26 05:59:11;;;;;;;3.08;1.20;;;30.20;99.90;;;;;;4163799;28;20068;-66
2021/09/26 06:01:15;;;;;;;3.80;1.00;;;30.20;99.90;;;;;;4164244;28;20091;-66
2021/09/26 06:03:21;;;;;;;3.53;1.05;;;30.20;99.90;;;;;;4164256;28;20565;-67
2021/09/26 06:05:25;;;;;;;1.45;0.70;;;30.20;99.90;;;;;;4164018;28;20069;-67
2021/09/26 06:07:30;;;;;;;0.82;0.75;;;30.20;99.90;;;;;;4164040;28;20087;-66
2021/09/26 06:09:35;;;;;;;1.63;1.00;;;30.30;99.90;;;;;;4175733;28;20107;-69
2021/09/26 06:11:39;;;;;;;1.38;1.02;;;30.40;99.90;;;;;;4154668;28;20132;-66
2021/09/26 06:13:44;;;;;;;2.13;0.90;;;30.50;99.90;;;;;;4159009;28;20053;-67
2021/09/26 06:15:49;;;;;;;1.77;0.80;;;30.50;99.90;;;;;;4153710;28;20056;-66
2021/09/26 06:17:54;;;;;;;1.13;0.90;;;30.50;99.90;;;;;;4149236;28;20179;-66
2021/09/26 06:19:59;;;;;;;1.42;0.90;;;30.50;99.90;;;;;;4159736;28;20059;-67
2021/09/26 06:22:04;;;;;;;2.50;1.00;;;30.50;99.90;;;;;;4175356;28;20045;-65
2021/09/26 06:24:10;;;;;;;1.77;0.80;;;30.60;99.90;;;;;;4159445;28;20111;-67
2021/09/26 06:26:14;;;;;;;5.45;1.10;;;30.60;99.90;;;;;;4156333;28;20689;-65
2021/09/26 06:28:19;;;;;;;2.25;1.00;;;30.60;99.90;;;;;;4152620;28;20049;-66
2021/09/26 06:30:24;;;;;;;1.75;0.90;;;30.60;99.90;;;;;;4157456;28;20037;-66
2021/09/26 06:32:31;;;;;;;4.78;1.05;;;30.70;99.90;;;;;;4160095;28;20099;-66
2021/09/26 06:34:37;;;;;;;1.90;1.05;;;30.80;99.90;;;;;;4145323;28;20069;-66
2021/09/26 06:36:42;;;;;;;2.55;0.90;;;30.90;99.90;;;;;;4144572;28;20053;-66
2021/09/26 06:38:51;;;;;;;2.15;0.70;;;30.90;99.90;;;;;;4160119;28;20044;-66
2021/09/26 06:40:58;;;;;;;3.08;1.05;;;30.90;99.90;;;;;;4160400;28;20088;-67
2021/09/26 06:43:02;;;;;;;1.58;0.90;;;30.90;99.90;;;;;;4161794;28;20060;-66
2021/09/26 06:45:08;;;;;;;2.88;1.35;;;30.70;99.90;;;;;;4160965;28;20553;-66
2021/09/26 06:47:14;;;;;;;2.78;1.35;;;30.60;99.90;;;;;;4161605;28;20041;-66
2021/09/26 06:49:18;;;;;;;2.13;1.20;;;30.50;99.90;;;;;;4159595;28;20041;-67
2021/09/26 06:51:23;;;;;;;3.72;1.48;;;30.30;99.90;;;;;;4161532;28;20043;-66
2021/09/26 06:53:28;;;;;;;6.72;1.90;;;30.30;99.90;;;;;;4161563;28;20136;-67
2021/09/26 06:55:32;;;;;;;4.20;1.73;;;30.00;99.90;;;;;;4161141;28;20091;-67
2021/09/26 06:57:36;;;;;;;4.00;1.55;;;29.70;99.90;;;;;;4159986;28;20060;-67
2021/09/26 06:59:41;;;;;;;5.40;1.67;;;29.60;99.90;;;;;;4163671;28;20083;-66
2021/09/26 07:01:46;;;;;;;5.30;1.80;;;29.60;99.90;;;;;;4160845;28;20860;-67
2021/09/26 07:03:50;;;;;;;4.20;2.00;;;29.60;99.90;;;;;;4176266;28;20049;-67
2021/09/26 07:05:55;;;;;;;4.43;1.95;;;29.70;99.90;;;;;;4160435;28;20518;-66
2021/09/26 07:08:00;;;;;;;4.95;2.00;;;29.70;99.90;;;;;;4159590;28;20052;-66
2021/09/26 07:10:05;;;;;;;4.68;1.75;;;29.70;99.90;;;;;;4156959;28;20813;-66
2021/09/26 07:12:10;;;;;;;4.53;1.35;;;29.80;99.90;;;;;;4159639;28;20038;-65
2021/09/26 07:14:14;;;;;;;3.78;1.48;;;29.80;99.90;;;;;;4159509;28;20046;-66
2021/09/26 07:16:18;;;;;;;3.97;1.45;;;29.70;99.90;;;;;;4158948;28;20379;-67
2021/09/26 07:18:25;;;;;;;1.98;1.23;;;29.80;99.90;;;;;;4160721;28;20049;-66
2021/09/26 07:20:30;;;;;;;2.58;1.20;;;29.80;99.90;;;;;;4160274;28;20447;-65
2021/09/26 07:22:34;;;;;;;4.22;1.30;;;29.90;99.90;;;;;;4159429;28;20072;-65
2021/09/26 07:24:38;;;;;;;1.17;0.90;;;29.90;99.90;;;;;;4153688;28;20057;-65
2021/09/26 07:26:44;;;;;;;2.95;1.23;;;30.00;99.90;;;;;;4159720;28;20160;-66
2021/09/26 07:28:49;;;;;;;0.88;0.82;;;30.00;99.90;;;;;;4143145;28;20080;-65
2021/09/26 07:30:53;;;;;;;4.05;1.58;;;30.00;99.90;;;;;;4147512;28;20042;-65
2021/09/26 07:32:58;;;;;;;1.38;0.93;;;30.10;99.90;;;;;;4160649;28;20068;-66
2021/09/26 07:35:02;;;;;;;1.00;0.85;;;30.10;99.90;;;;;;4160719;28;20056;-68
2021/09/26 07:37:07;;;;;;;4.00;1.27;;;30.10;99.90;;;;;;4160813;28;20395;-67
2021/09/26 07:39:12;;;;;;;2.13;0.90;;;30.10;99.90;;;;;;4158912;28;20041;-67
2021/09/26 07:41:16;;;;;;;2.65;0.88;;;30.10;99.90;;;;;;4175153;28;20053;-68
2021/09/26 07:43:21;;;;;;;1.80;0.75;;;30.20;99.90;;;;;;4160534;28;20049;-68
2021/09/26 07:45:37;;;;;;;1.02;0.82;;;30.20;99.90;;;;;;4174031;28;20053;-68
2021/09/26 07:47:43;;;;;;;1.38;1.08;;;30.30;99.90;;;;;;4160072;28;20041;-69
2021/09/26 07:49:48;;;;;;;1.98;1.00;;;30.30;99.90;;;;;;4160598;28;20046;-68
2021/09/26 07:51:53;;;;;;;2.05;1.30;;;30.30;99.90;;;;;;4159251;28;20037;-67
2021/09/26 07:53:58;;;;;;;2.60;1.20;;;30.40;99.90;;;;;;4155522;28;20451;-68
2021/09/26 07:56:03;;;;;;;1.77;0.98;;;30.30;99.90;;;;;;4147296;28;20041;-67
2021/09/26 07:58:08;;;;;;;1.67;1.10;;;30.30;99.90;;;;;;4159226;28;20140;-68
2021/09/26 08:00:13;;;;;;;1.70;0.90;;;30.40;99.90;;;;;;4159791;28;20107;-68
2021/09/26 08:02:18;;;;;;;2.15;1.00;;;30.40;99.90;;;;;;4157939;28;20122;-69
2021/09/26 08:04:23;;;;;;;1.27;0.90;;;30.50;99.90;;;;;;4159013;28;20437;-68
2021/09/26 08:06:29;;;;;;;1.42;1.00;;;30.60;99.90;;;;;;4158667;28;20049;-69
2021/09/26 08:08:36;;;;;;;0.70;0.60;;;30.70;99.90;;;;;;4175002;28;20067;-67
2021/09/26 08:10:41;;;;;;;2.78;0.77;;;30.70;99.90;;;;;;4160027;28;20063;-67
2021/09/26 08:12:49;;;;;;;1.70;0.70;;;30.80;99.90;;;;;;4142368;28;20056;-69
2021/09/26 08:14:53;;;;;;;1.80;0.80;;;30.90;99.90;;;;;;4151104;28;20050;-66
2021/09/26 08:16:58;;;;;;;1.90;0.73;;;30.80;99.90;;;;;;4169507;28;20211;-67
2021/09/26 08:19:03;;;;;;;2.00;0.80;;;30.90;99.90;;;;;;4156283;28;20092;-67
2021/09/26 08:21:07;;;;;;;1.00;0.60;;;31.00;99.90;;;;;;4149622;28;20056;-67
2021/09/26 08:23:12;;;;;;;1.85;0.80;;;31.10;99.90;;;;;;4158124;28;20132;-65
2021/09/26 08:25:16;;;;;;;1.75;1.27;;;31.10;99.90;;;;;;4155944;28;20042;-68
2021/09/26 08:27:21;;;;;;;1.55;0.95;;;31.00;99.90;;;;;;4169943;28;20534;-67
2021/09/26 08:29:25;;;;;;;1.77;0.85;;;30.70;99.90;;;;;;4176473;28;20043;-71
2021/09/26 08:31:30;;;;;;;1.45;1.00;;;30.50;99.90;;;;;;4160027;28;20072;-68
2021/09/26 08:33:37;;;;;;;1.98;0.90;;;30.40;99.90;;;;;;4163320;28;20037;-69
2021/09/26 08:35:42;;;;;;;1.90;0.68;;;30.40;99.90;;;;;;4163355;28;20041;-67
2021/09/26 08:37:46;;;;;;;3.30;0.80;;;30.40;99.90;;;;;;4163486;28;20073;-68
2021/09/26 08:39:50;;;;;;;1.63;0.70;;;30.30;99.90;;;;;;4163052;28;20049;-68
2021/09/26 08:41:55;;;;;;;2.00;0.80;;;30.40;99.90;;;;;;4163069;28;20048;-67
2021/09/26 08:43:59;;;;;;;2.20;0.90;;;30.40;99.90;;;;;;4162896;28;20555;-67
2021/09/26 08:46:08;;;;;;;1.60;0.90;;;30.40;99.90;;;;;;4146511;28;20049;-67
2021/09/26 08:48:13;;;;;;;1.98;1.02;;;30.50;99.90;;;;;;4162925;28;20049;-68
2021/09/26 08:50:19;;;;;;;1.20;0.80;;;30.50;99.90;;;;;;4162141;28;20146;-67
2021/09/26 08:52:24;;;;;;;1.27;0.80;;;30.50;99.90;;;;;;4162713;28;20045;-68
2021/09/26 08:54:28;;;;;;;1.73;0.90;;;30.50;99.90;;;;;;4173468;28;20550;-68
2021/09/26 08:56:32;;;;;;;1.17;0.85;;;30.60;99.90;;;;;;4161858;28;20073;-70
2021/09/26 08:58:40;;;;;;;1.33;0.80;;;30.50;99.90;;;;;;4162287;28;20052;-67
2021/09/26 09:00:44;;;;;;;0.63;0.60;;;30.50;99.90;;;;;;4162981;28;20053;-69
2021/09/26 09:02:49;;;;;;;1.58;0.60;;;30.40;99.90;;;;;;4160447;28;20145;-68
2021/09/26 09:04:54;;;;;;;1.70;0.88;;;30.40;99.90;;;;;;4160997;28;20143;-69
2021/09/26 09:07:03;;;;;;;2.15;0.80;;;30.40;99.90;;;;;;4161516;28;20144;-67
2021/09/26 09:09:16;;;;;;;2.10;0.80;;;30.50;99.90;;;;;;4174884;28;20049;-68
2021/09/26 09:11:21;;;;;;;2.08;1.55;;;30.50;99.90;;;;;;4161623;28;20056;-68
2021/09/26 09:13:30;;;;;;;2.97;0.98;;;30.60;99.90;;;;;;4162334;28;20080;-68
2021/09/26 09:15:40;;;;;;;1.48;0.90;;;30.50;99.90;;;;;;4161174;28;20042;-68
2021/09/26 09:17:45;;;;;;;1.58;0.80;;;30.50;99.90;;;;;;4162099;28;20075;-67
2021/09/26 09:20:12;;;;;;;3.45;0.88;;;30.50;99.90;;;;;;4158702;28;20579;-67
2021/09/26 09:22:18;;;;;;;0.93;0.65;;;30.50;99.90;;;;;;4161369;28;20156;-68
2021/09/26 09:24:25;;;;;;;1.17;0.50;;;30.40;99.90;;;;;;4162064;28;20099;-68
2021/09/26 09:26:34;;;;;;;1.38;0.60;;;30.40;99.90;;;;;;4162149;28;20478;-67
2021/09/26 09:28:41;;;;;;;1.25;0.70;;;30.40;99.90;;;;;;4176867;28;20076;-68
2021/09/26 09:30:51;;;;;;;1.77;0.80;;;30.40;99.90;;;;;;4145888;28;20488;-68
2021/09/26 09:32:55;;;;;;;1.00;0.68;;;30.40;99.90;;;;;;4175040;28;20064;-67
2021/09/26 09:35:00;;;;;;;1.48;0.70;;;30.40;99.90;;;;;;4162371;28;20064;-67
2021/09/26 09:37:25;;;;;;;1.17;0.82;;;30.40;99.90;;;;;;4156259;28;20103;-68
2021/09/26 09:39:29;;;;;;;1.63;0.77;;;30.40;99.90;;;;;;4157998;28;20045;-69
2021/09/26 09:41:42;;;;;;;2.35;0.85;;;30.40;99.90;;;;;;4158802;28;20511;-69
2021/09/26 09:43:49;;;;;;;2.70;1.20;;;30.40;99.90;;;;;;4162144;28;20045;-68
2021/09/26 09:45:55;;;;;;;3.65;2.13;;;30.50;99.90;;;;;;4158992;28;20046;-68
2021/09/26 09:48:02;;;;;;;5.28;3.13;;;30.50;99.90;;;;;;4176642;28;20490;-68
2021/09/26 09:50:07;;;;;;;5.78;2.97;;;30.50;99.90;;;;;;4161197;28;20057;-68
2021/09/26 09:52:12;;;;;;;2.97;2.17;;;30.50;99.90;;;;;;4142378;28;20105;-68
2021/09/26 09:54:16;;;;;;;3.55;2.50;;;30.50;99.90;;;;;;4160067;28;20045;-68
2021/09/26 09:56:21;;;;;;;5.20;3.38;;;30.50;99.90;;;;;;4159810;28;20041;-68
2021/09/26 09:58:26;;;;;;;3.47;2.20;;;30.40;99.90;;;;;;4161494;28;20056;-68
2021/09/26 10:00:31;;;;;;;2.65;1.60;;;30.20;99.90;;;;;;4158247;28;20042;-67
2021/09/26 10:02:35;;;;;;;1.30;1.20;;;30.20;99.90;;;;;;4161466;28;20903;-68
2021/09/26 10:04:42;;;;;;;1.60;1.00;;;30.10;99.90;;;;;;4163029;28;20045;-67
2021/09/26 10:06:47;;;;;;;1.58;1.00;;;30.00;99.90;;;;;;4163012;28;20057;-68
2021/09/26 10:08:53;;;;;;;2.83;1.20;;;30.00;99.90;;;;;;4114270;28;20496;-67
2021/09/26 10:11:07;;;;;;;1.20;1.10;;;30.00;99.90;;;;;;4163807;28;20076;-67
2021/09/26 10:13:12;;;;;;;1.35;1.00;;;30.00;99.90;;;;;;4176382;28;20040;-68
2021/09/26 10:15:17;;;;;;;1.42;1.23;;;30.00;99.90;;;;;;4146731;28;20130;-67
2021/09/26 10:17:22;;;;;;;2.78;1.13;;;30.00;99.90;;;;;;4162748;28;20037;-68
2021/09/26 10:19:27;;;;;;;1.17;1.08;;;30.00;99.90;;;;;;4164210;28;20060;-66
2021/09/26 10:21:32;;;;;;;1.52;1.08;;;30.00;99.90;;;;;;4162721;28;20133;-66
2021/09/26 10:23:36;;;;;;;2.47;1.25;;;30.00;99.90;;;;;;4162069;28;20064;-68
2021/09/26 10:25:41;;;;;;;1.75;1.05;;;29.90;99.90;;;;;;4177970;28;20498;-66
2021/09/26 10:27:45;;;;;;;2.40;1.30;;;29.80;99.90;;;;;;4146610;28;20564;-67
2021/09/26 10:30:10;;;;;;;2.03;1.50;;;29.80;99.90;;;;;;4159758;28;20040;-67
2021/09/26 10:32:14;;;;;;;2.60;1.33;;;29.80;99.90;;;;;;4163948;28;20033;-67
2021/09/26 10:34:21;;;;;;;3.47;1.60;;;29.80;99.90;;;;;;4163665;28;20052;-67
2021/09/26 10:36:25;;;;;;;5.25;1.95;;;29.70;99.90;;;;;;4163851;28;20065;-67
2021/09/26 10:38:30;;;;;;;2.75;1.50;;;29.70;99.90;;;;;;4159654;28;20049;-68
2021/09/26 10:40:37;;;;;;;1.80;1.42;;;29.70;99.90;;;;;;4174841;28;20041;-68
2021/09/26 10:42:42;;;;;;;3.25;1.30;;;29.70;99.90;;;;;;4146115;28;20584;-67
2021/09/26 10:44:48;;;;;;;3.35;1.60;;;29.70;99.90;;;;;;4162585;28;20136;-67
2021/09/26 10:47:16;;;;;;;3.63;1.33;;;29.60;99.90;;;;;;4176209;28;20524;-67
2021/09/26 10:49:23;;;;;;;4.53;1.20;;;29.60;99.90;;;;;;4161643;28;20542;-67
2021/09/26 10:51:54;;;;;;;4.30;1.30;;;29.50;99.90;;;;;;4161599;28;20045;-67
2021/09/26 10:54:23;;;;;;;3.80;1.40;;;29.40;99.90;;;;;;4160102;28;20426;-69
2021/09/26 10:56:28;;;;;;;5.38;1.45;;;29.50;99.90;;;;;;4178217;28;20114;-68
2021/09/26 10:58:32;;;;;;;6.65;1.50;;;29.40;99.90;;;;;;4149219;28;20296;-68
2021/09/26 11:00:43;;;;;;;5.80;1.65;;;29.40;99.90;;;;;;4160010;28;20049;-68